createdAt,value
2019-04-20T00:01:57.238Z,4.40
2019-04-20T00:04:31.006Z,4.12
2019-04-20T00:06:59.152Z,4.40
2019-04-20T00:09:31.866Z,3.98
2019-04-20T00:12:08.889Z,4.33
2019-04-20T00:14:34.502Z,4.12
2019-04-20T00:17:03.053Z,4.20
2019-04-20T00:19:38.924Z,3.90
2019-04-20T00:22:24.577Z,4.08
2019-04-20T00:25:00.444Z,4.65
2019-04-20T00:27:42.778Z,4.55
2019-04-20T00:30:22.784Z,4.00
2019-04-20T00:32:41.274Z,4.28
2019-04-20T00:34:58.252Z,4.50
2019-04-20T00:37:27.797Z,4.35
2019-04-20T00:39:57.757Z,4.55
2019-04-20T00:42:33.888Z,4.37
2019-04-20T00:45:05.658Z,4.00
2019-04-20T00:47:37.133Z,4.65
2019-04-20T00:50:22.870Z,4.50
2019-04-20T00:52:47.115Z,4.83
2019-04-20T00:55:02.595Z,4.67
2019-04-20T00:57:41.768Z,4.47
2019-04-20T01:00:24.307Z,5.00
2019-04-20T01:02:45.438Z,4.67
2019-04-20T01:05:39.407Z,4.60
2019-04-20T01:08:12.919Z,4.30
2019-04-20T01:10:49.372Z,4.42
2019-04-20T01:13:19.821Z,4.40
2019-04-20T01:15:51.642Z,4.10
2019-04-20T01:18:17.078Z,4.35
2019-04-20T01:20:47.347Z,4.58
2019-04-20T01:23:20.722Z,4.62
2019-04-20T01:25:55.839Z,4.25
2019-04-20T01:28:37.300Z,3.92
2019-04-20T01:31:06.198Z,4.60
2019-04-20T01:33:31.808Z,4.80
2019-04-20T01:36:09.051Z,4.50
2019-04-20T01:38:41.854Z,5.00
2019-04-20T01:40:55.111Z,5.37
2019-04-20T01:43:24.776Z,4.70
2019-04-20T01:46:01.422Z,5.37
2019-04-20T01:48:28.663Z,5.20
2019-04-20T01:51:06.289Z,4.75
2019-04-20T01:53:44.091Z,5.33
2019-04-20T01:56:17.109Z,5.42
2019-04-20T01:58:53.010Z,5.08
2019-04-20T02:01:28.097Z,5.05
2019-04-20T02:03:58.728Z,4.92
2019-04-20T02:06:30.447Z,5.20
2019-04-20T02:09:06.487Z,5.40
2019-04-20T02:11:38.364Z,5.60
2019-04-20T02:14:07.441Z,5.08
2019-04-20T02:16:40.805Z,5.17
2019-04-20T02:19:25.478Z,5.08
2019-04-20T02:21:55.683Z,5.10
2019-04-20T02:24:11.345Z,4.58
2019-04-20T02:26:41.001Z,4.97
2019-04-20T02:29:37.443Z,5.10
2019-04-20T02:32:17.176Z,5.60
2019-04-20T02:34:59.884Z,5.67
2019-04-20T02:37:49.368Z,5.65
2019-04-20T02:40:09.134Z,5.28
2019-04-20T02:42:44.592Z,5.35
2019-04-20T02:45:18.713Z,5.37
2019-04-20T02:50:15.254Z,5.40
2019-04-20T02:55:14.775Z,5.50
2019-04-20T03:00:12.742Z,5.15
2019-04-20T03:02:31.416Z,5.62
2019-04-20T03:05:00.055Z,5.67
2019-04-20T03:07:31.512Z,5.95
2019-04-20T03:10:11.043Z,5.60
2019-04-20T03:12:43.041Z,5.92
2019-04-20T03:15:13.892Z,6.00
2019-04-20T03:17:51.168Z,6.03
2019-04-20T03:20:21.181Z,6.67
2019-04-20T03:23:20.061Z,6.92
2019-04-20T03:25:43.097Z,7.22
2019-04-20T03:28:14.249Z,7.15
2019-04-20T03:33:31.021Z,6.67
2019-04-20T03:35:58.616Z,6.85
2019-04-20T03:38:19.844Z,7.33
2019-04-20T03:40:46.492Z,8.05
2019-04-20T03:43:03.833Z,8.15
2019-04-20T03:45:42.682Z,8.35
2019-04-20T03:48:16.081Z,8.68
2019-04-20T03:50:56.649Z,8.73
2019-04-20T03:53:27.776Z,9.18
2019-04-20T03:56:11.822Z,9.30
2019-04-20T03:58:45.922Z,8.95
2019-04-20T04:01:55.602Z,9.88
2019-04-20T04:04:10.735Z,9.18
2019-04-20T04:06:32.823Z,9.18
2019-04-20T04:09:02.748Z,10.08
2019-04-20T04:11:38.162Z,9.83
2019-04-20T04:13:52.530Z,10.05
2019-04-20T04:16:23.814Z,10.48
2019-04-20T04:19:01.459Z,10.78
2019-04-20T04:21:41.197Z,10.72
2019-04-20T04:24:11.968Z,10.32
2019-04-20T04:26:38.998Z,10.28
2019-04-20T04:29:21.391Z,10.95
2019-04-20T04:32:00.334Z,11.68
2019-04-20T04:34:20.680Z,11.15
2019-04-20T04:36:56.171Z,11.10
2019-04-20T04:39:26.308Z,10.78
2019-04-20T04:42:04.992Z,10.82
2019-04-20T04:44:19.255Z,11.93
2019-04-20T04:46:44.604Z,10.98
2019-04-20T04:49:17.241Z,10.98
2019-04-20T04:51:46.747Z,11.73
2019-04-20T04:54:16.356Z,11.43
2019-04-20T04:56:40.382Z,12.05
2019-04-20T04:59:10.694Z,12.58
2019-04-20T05:01:40.501Z,11.25
2019-04-20T05:04:32.699Z,12.55
2019-04-20T05:06:59.452Z,12.28
2019-04-20T05:09:15.363Z,11.68
2019-04-20T05:11:44.759Z,11.60
2019-04-20T05:14:21.608Z,11.88
2019-04-20T05:17:04.234Z,11.97
2019-04-20T05:19:36.663Z,12.05
2019-04-20T05:22:11.090Z,12.88
2019-04-20T05:24:48.449Z,12.03
2019-04-20T05:27:37.571Z,13.08
2019-04-20T05:29:44.677Z,12.33
2019-04-20T05:32:18.780Z,12.95
2019-04-20T05:35:12.160Z,12.73
2019-04-20T05:37:51.421Z,12.05
2019-04-20T05:40:10.452Z,12.68
2019-04-20T05:42:42.925Z,12.60
2019-04-20T05:45:11.285Z,12.63
2019-04-20T05:47:43.189Z,13.78
2019-04-20T05:50:09.652Z,12.70
2019-04-20T05:52:56.289Z,12.60
2019-04-20T05:55:20.842Z,12.37
2019-04-20T05:57:50.744Z,13.53
2019-04-20T06:00:19.197Z,12.78
2019-04-20T06:02:52.501Z,12.75
2019-04-20T06:05:22.397Z,13.32
2019-04-20T06:07:54.953Z,12.53
2019-04-20T06:10:32.113Z,13.58
2019-04-20T06:13:00.247Z,12.43
2019-04-20T06:15:38.468Z,13.20
2019-04-20T06:18:13.795Z,13.22
2019-04-20T06:20:50.239Z,12.53
2019-04-20T06:23:40.368Z,13.53
2019-04-20T06:26:19.421Z,12.20
2019-04-20T06:28:30.073Z,13.22
2019-04-20T06:31:10.738Z,12.50
2019-04-20T06:34:26.096Z,13.68
2019-04-20T06:36:53.533Z,12.95
2019-04-20T06:39:20.371Z,13.48
2019-04-20T06:44:30.438Z,13.08
2019-04-20T06:46:58.821Z,12.93
2019-04-20T06:49:30.238Z,12.82
2019-04-20T06:51:59.309Z,12.70
2019-04-20T06:54:38.019Z,13.55
2019-04-20T06:57:12.982Z,12.85
2019-04-20T06:59:43.124Z,13.40
2019-04-20T07:04:53.187Z,13.18
2019-04-20T07:07:30.888Z,13.35
2019-04-20T07:10:05.181Z,12.93
2019-04-20T07:12:17.023Z,13.13
2019-04-20T07:14:41.479Z,12.98
2019-04-20T07:19:56.101Z,12.98
2019-04-20T07:25:09.522Z,12.43
2019-04-20T07:27:45.118Z,13.40
2019-04-20T07:30:12.319Z,13.25
2019-04-20T07:32:48.384Z,13.32
2019-04-20T07:35:14.147Z,12.85
2019-04-20T07:38:10.056Z,12.47
2019-04-20T07:40:28.717Z,12.30
2019-04-20T07:42:52.652Z,13.03
2019-04-20T07:45:28.341Z,12.37
2019-04-20T07:47:58.123Z,12.58
2019-04-20T07:50:20.081Z,13.35
2019-04-20T07:52:43.868Z,12.85
2019-04-20T07:55:37.067Z,12.70
2019-04-20T07:57:50.058Z,12.10
2019-04-20T08:00:38.258Z,11.73
2019-04-20T08:03:26.454Z,12.23
2019-04-20T08:05:45.801Z,12.18
2019-04-20T08:08:22.936Z,12.73
2019-04-20T08:10:53.684Z,12.37
2019-04-20T08:13:32.071Z,13.10
2019-04-20T08:16:00.923Z,12.03
2019-04-20T08:18:51.334Z,11.53
2019-04-20T08:21:22.797Z,11.45
2019-04-20T08:23:52.143Z,12.60
2019-04-20T08:26:10.881Z,12.55
2019-04-20T08:28:55.232Z,12.88
2019-04-20T08:34:31.313Z,11.90
2019-04-20T08:36:49.228Z,11.25
2019-04-20T08:41:45.266Z,11.18
2019-04-20T08:44:34.003Z,10.78
2019-04-20T08:47:00.292Z,11.88
2019-04-20T08:49:26.475Z,11.30
2019-04-20T08:51:55.619Z,10.23
2019-04-20T08:54:16.542Z,10.20
2019-04-20T08:56:39.350Z,10.98
2019-04-20T08:59:02.368Z,9.98
2019-04-20T09:01:35.767Z,11.20
2019-04-20T09:04:12.744Z,11.20
2019-04-20T09:06:50.722Z,10.35
2019-04-20T09:09:37.546Z,11.00
2019-04-20T09:12:05.255Z,11.33
2019-04-20T09:14:12.179Z,10.85
2019-04-20T09:16:47.944Z,10.80
2019-04-20T09:19:14.952Z,9.95
2019-04-20T09:21:53.062Z,9.40
2019-04-20T09:24:43.534Z,9.18
2019-04-20T09:27:04.610Z,9.30
2019-04-20T09:29:35.843Z,10.18
2019-04-20T09:32:20.892Z,9.93
2019-04-20T09:34:54.365Z,9.10
2019-04-20T09:37:44.441Z,9.55
2019-04-20T09:40:28.966Z,9.20
2019-04-20T09:42:41.184Z,8.15
2019-04-20T09:45:23.236Z,8.60
2019-04-20T09:47:48.231Z,7.60
2019-04-20T09:50:36.902Z,7.47
2019-04-20T09:53:02.392Z,6.92
2019-04-20T09:55:27.960Z,7.70
2019-04-20T09:58:01.081Z,8.23
2019-04-20T10:00:37.182Z,8.15
2019-04-20T10:02:54.678Z,7.90
2019-04-20T10:05:25.344Z,7.35
2019-04-20T10:07:59.900Z,6.75
2019-04-20T10:10:33.370Z,6.83
2019-04-20T10:12:58.375Z,7.08
2019-04-20T10:15:29.618Z,7.40
2019-04-20T10:17:59.564Z,6.97
2019-04-20T10:20:32.796Z,6.92
2019-04-20T10:23:00.607Z,7.10
2019-04-20T10:25:30.867Z,7.12
2019-04-20T10:28:01.577Z,6.65
2019-04-20T10:30:32.549Z,7.15
2019-04-20T10:33:01.982Z,7.78
2019-04-20T10:35:33.834Z,6.62
2019-04-20T10:38:05.428Z,6.90
2019-04-20T10:40:46.403Z,6.70
2019-04-20T10:43:06.217Z,6.65
2019-04-20T10:45:36.931Z,6.40
2019-04-20T10:48:06.639Z,6.58
2019-04-20T10:50:36.780Z,6.58
2019-04-20T10:53:07.963Z,6.95
2019-04-20T10:55:37.772Z,6.75
2019-04-20T10:58:07.462Z,7.03
2019-04-20T11:00:44.033Z,6.62
2019-04-20T11:03:15.963Z,6.58
2019-04-20T11:05:46.800Z,7.05
2019-04-20T11:08:17.489Z,7.03
2019-04-20T11:10:57.912Z,6.67
2019-04-20T11:13:19.307Z,6.78
2019-04-20T11:15:50.566Z,6.37
2019-04-20T11:18:20.187Z,7.53
2019-04-20T11:20:51.080Z,6.90
2019-04-20T11:23:20.536Z,6.80
2019-04-20T11:25:50.507Z,7.28
2019-04-20T11:28:20.134Z,6.65
2019-04-20T11:30:50.618Z,6.50
2019-04-20T11:33:20.339Z,7.75
2019-04-20T11:35:49.997Z,7.20
2019-04-20T11:38:19.788Z,7.53
2019-04-20T11:41:02.507Z,7.28
2019-04-20T11:43:21.832Z,7.00
2019-04-20T11:45:51.812Z,7.15
2019-04-20T11:48:35.259Z,6.20
2019-04-20T11:51:09.517Z,6.55
2019-04-20T11:53:40.360Z,6.50
2019-04-20T11:56:14.582Z,9.55
2019-04-20T11:58:42.862Z,6.50
2019-04-20T12:01:38.085Z,7.70
2019-04-20T12:04:16.726Z,7.03
2019-04-20T12:06:32.768Z,6.92
2019-04-20T12:09:05.088Z,7.92
2019-04-20T12:11:50.985Z,7.10
2019-04-20T12:14:07.272Z,7.33
2019-04-20T12:16:37.505Z,6.92
2019-04-20T12:19:08.441Z,6.60
2019-04-20T12:21:39.078Z,7.45
2019-04-20T12:24:09.959Z,7.40
2019-04-20T12:26:40.602Z,6.95
2019-04-20T12:29:10.138Z,7.75
2019-04-20T12:31:39.815Z,7.03
2019-04-20T12:34:10.470Z,7.37
2019-04-20T12:36:40.044Z,7.15
2019-04-20T12:39:13.319Z,6.80
2019-04-20T12:41:50.543Z,8.00
2019-04-20T12:44:15.558Z,8.18
2019-04-20T12:46:45.854Z,7.20
2019-04-20T12:49:15.837Z,8.05
2019-04-20T12:51:52.623Z,7.62
2019-04-20T12:54:16.628Z,7.08
2019-04-20T12:56:46.575Z,7.65
2019-04-20T12:59:16.219Z,7.40
2019-04-20T13:01:45.566Z,7.15
2019-04-20T13:04:16.179Z,7.00
2019-04-20T13:06:46.962Z,6.87
2019-04-20T13:09:18.655Z,7.00
2019-04-20T13:12:03.562Z,6.70
2019-04-20T13:14:42.224Z,7.17
2019-04-20T13:17:12.400Z,6.70
2019-04-20T13:19:41.835Z,6.55
2019-04-20T13:22:12.819Z,6.70
2019-04-20T13:24:43.148Z,6.30
2019-04-20T13:27:14.397Z,7.00
2019-04-20T13:29:47.436Z,8.38
2019-04-20T13:32:16.345Z,6.47
2019-04-20T13:34:46.586Z,6.92
2019-04-20T13:37:16.216Z,6.92
2019-04-20T13:39:46.782Z,7.78
2019-04-20T13:42:22.679Z,6.72
2019-04-20T13:44:48.779Z,7.97
2019-04-20T13:47:19.116Z,7.42
2019-04-20T13:49:49.241Z,7.12
2019-04-20T13:52:18.813Z,6.85
2019-04-20T13:54:48.474Z,6.53
2019-04-20T13:57:23.954Z,6.65
2019-04-20T14:00:02.229Z,6.30
2019-04-20T14:02:51.007Z,6.42
2019-04-20T14:05:31.259Z,7.05
2019-04-20T14:08:05.237Z,6.80
2019-04-20T14:10:35.427Z,6.72
2019-04-20T14:13:12.171Z,5.95
2019-04-20T14:15:38.388Z,6.42
2019-04-20T14:18:09.322Z,6.53
2019-04-20T14:20:38.654Z,5.85
2019-04-20T14:23:09.370Z,6.15
2019-04-20T14:25:38.917Z,6.28
2019-04-20T14:28:09.078Z,6.30
2019-04-20T14:30:40.217Z,6.22
2019-04-20T14:33:10.611Z,5.92
2019-04-20T14:35:40.887Z,6.03
2019-04-20T14:38:10.494Z,5.95
2019-04-20T14:40:42.173Z,6.25
2019-04-20T14:43:12.912Z,6.15
2019-04-20T14:45:42.875Z,6.17
2019-04-20T14:48:14.507Z,5.72
2019-04-20T14:50:43.962Z,5.45
2019-04-20T14:53:13.760Z,6.72
2019-04-20T14:55:43.710Z,5.87
2019-04-20T14:58:33.447Z,8.58
2019-04-20T15:01:06.767Z,6.08
2019-04-20T15:03:39.182Z,5.55
2019-04-20T15:06:09.717Z,5.72
2019-04-20T15:08:40.673Z,5.90
2019-04-20T15:11:10.788Z,5.75
2019-04-20T15:13:40.625Z,5.20
2019-04-20T15:16:10.867Z,5.08
2019-04-20T15:18:58.120Z,5.83
2019-04-20T15:21:33.465Z,5.70
2019-04-20T15:24:03.722Z,6.80
2019-04-20T15:26:34.287Z,4.72
2019-04-20T15:29:04.414Z,4.83
2019-04-20T15:31:34.376Z,4.55
2019-04-20T15:34:06.915Z,4.35
2019-04-20T15:36:36.539Z,4.40
2019-04-20T15:39:09.381Z,4.22
2019-04-20T15:41:39.595Z,4.33
2019-04-20T15:44:09.293Z,3.80
2019-04-20T15:46:39.954Z,4.40
2019-04-20T15:49:10.283Z,4.03
2019-04-20T15:51:39.902Z,4.05
2019-04-20T15:54:11.957Z,3.80
2019-04-20T15:57:14.186Z,3.98
2019-04-20T15:59:38.155Z,3.75
2019-04-20T16:02:13.604Z,3.67
2019-04-20T16:05:04.082Z,3.83
2019-04-20T16:07:42.288Z,3.62
2019-04-20T16:10:09.417Z,3.55
2019-04-20T16:12:40.651Z,4.67
2019-04-20T16:15:11.357Z,5.58
2019-04-20T16:17:45.437Z,3.35
2019-04-20T16:20:16.935Z,3.95
2019-04-20T16:22:44.778Z,7.97
2019-04-20T16:25:23.586Z,4.40
2019-04-20T16:27:53.861Z,3.42
2019-04-20T16:30:23.397Z,4.05
2019-04-20T16:32:54.637Z,4.17
2019-04-20T16:35:24.606Z,4.17
2019-04-20T16:37:54.246Z,3.25
2019-04-20T16:40:27.325Z,4.87
2019-04-20T16:42:58.427Z,4.78
2019-04-20T16:45:29.953Z,3.70
2019-04-20T16:48:02.158Z,3.67
2019-04-20T16:50:33.050Z,3.92
2019-04-20T16:53:02.721Z,3.58
2019-04-20T16:55:34.858Z,3.90
2019-04-20T16:58:05.655Z,4.15
2019-04-20T17:00:37.622Z,4.62
2019-04-20T17:03:09.106Z,3.60
2019-04-20T17:05:39.089Z,3.98
2019-04-20T17:08:09.439Z,3.80
2019-04-20T17:10:39.516Z,3.95
2019-04-20T17:13:09.364Z,3.80
2019-04-20T17:15:39.361Z,4.20
2019-04-20T17:18:09.710Z,4.70
2019-04-20T17:20:41.015Z,4.60
2019-04-20T17:23:11.031Z,4.10
2019-04-20T17:25:41.815Z,4.35
2019-04-20T17:28:20.758Z,4.58
2019-04-20T17:31:03.656Z,4.92
2019-04-20T17:33:47.373Z,4.60
2019-04-20T17:36:12.446Z,4.00
2019-04-20T17:38:43.696Z,4.08
2019-04-20T17:41:29.230Z,4.12
2019-04-20T17:44:00.268Z,3.98
2019-04-20T17:46:24.681Z,3.90
2019-04-20T17:49:00.813Z,3.87
2019-04-20T17:51:34.420Z,4.20
2019-04-20T17:53:55.761Z,4.80
2019-04-20T17:56:20.340Z,4.70
2019-04-20T17:58:54.116Z,4.17
2019-04-20T18:01:34.805Z,4.17
2019-04-20T18:04:34.455Z,4.30
2019-04-20T18:06:50.208Z,4.12
2019-04-20T18:09:34.916Z,3.85
2019-04-20T18:11:45.265Z,3.55
2019-04-20T18:14:28.525Z,4.10
2019-04-20T18:17:16.999Z,4.00
2019-04-20T18:19:36.835Z,4.08
2019-04-20T18:22:11.920Z,4.75
2019-04-20T18:25:14.700Z,4.00
2019-04-20T18:27:48.575Z,4.40
2019-04-20T18:30:14.790Z,3.77
2019-04-20T18:32:29.858Z,4.12
2019-04-20T18:35:03.402Z,3.60
2019-04-20T18:37:36.331Z,4.00
2019-04-20T18:40:11.430Z,3.90
2019-04-20T18:42:43.836Z,3.98
2019-04-20T18:45:26.701Z,4.30
2019-04-20T18:48:02.716Z,5.03
2019-04-20T18:50:22.885Z,4.50
2019-04-20T18:52:47.666Z,4.90
2019-04-20T18:55:29.327Z,6.83
2019-04-20T18:57:51.033Z,7.15
2019-04-20T19:00:27.104Z,7.53
2019-04-20T19:02:56.049Z,12.55
2019-04-20T19:05:24.415Z,9.80
2019-04-20T19:08:00.930Z,8.98
2019-04-20T19:10:29.607Z,8.90
2019-04-20T19:13:01.629Z,8.68
2019-04-20T19:15:51.188Z,6.50
2019-04-20T19:18:23.883Z,7.12
2019-04-20T19:20:43.212Z,5.37
2019-04-20T19:23:12.709Z,5.40
2019-04-20T19:25:45.774Z,4.92
2019-04-20T19:28:21.623Z,7.83
2019-04-20T19:30:59.972Z,5.40
2019-04-20T19:33:30.907Z,5.67
2019-04-20T19:35:57.459Z,5.72
2019-04-20T19:38:24.489Z,5.40
2019-04-20T19:41:01.941Z,5.35
2019-04-20T19:43:31.059Z,5.47
2019-04-20T19:46:35.516Z,5.20
2019-04-20T19:48:39.643Z,5.08
2019-04-20T19:51:17.384Z,4.80
2019-04-20T19:53:48.176Z,4.55
2019-04-20T19:56:10.753Z,4.75
2019-04-20T19:58:49.688Z,4.35
2019-04-20T20:01:37.860Z,4.37
2019-04-20T20:04:11.764Z,4.12
2019-04-20T20:06:47.982Z,4.15
2019-04-20T20:09:17.815Z,3.90
2019-04-20T20:11:48.541Z,3.83
2019-04-20T20:14:31.950Z,3.90
2019-04-20T20:17:08.455Z,3.90
2019-04-20T20:19:38.498Z,4.20
2019-04-20T20:22:06.667Z,4.33
2019-04-20T20:24:25.407Z,4.45
2019-04-20T20:27:00.459Z,4.42
2019-04-20T20:29:34.265Z,4.60
2019-04-20T20:32:10.355Z,3.90
2019-04-20T20:34:36.364Z,4.40
2019-04-20T20:37:04.215Z,4.05
2019-04-20T20:39:33.045Z,3.90
2019-04-20T20:42:15.245Z,3.80
2019-04-20T20:44:44.072Z,4.10
2019-04-20T20:47:31.734Z,3.77
2019-04-20T20:50:08.739Z,4.22
2019-04-20T20:52:29.136Z,4.00
2019-04-20T20:55:00.779Z,4.35
2019-04-20T20:57:24.277Z,4.12
2019-04-20T21:00:00.455Z,4.28
2019-04-20T21:02:40.110Z,4.10
2019-04-20T21:04:55.900Z,4.12
2019-04-20T21:07:26.606Z,3.80
2019-04-20T21:09:58.687Z,3.90
2019-04-20T21:12:30.581Z,3.70
2019-04-20T21:15:08.830Z,3.77
2019-04-20T21:17:47.519Z,3.40
2019-04-20T21:20:20.438Z,4.15
2019-04-20T21:22:58.726Z,5.53
2019-04-20T21:25:21.158Z,4.03
2019-04-20T21:27:52.873Z,4.25
2019-04-20T21:30:30.008Z,4.37
2019-04-20T21:33:01.781Z,3.20
2019-04-20T21:38:05.465Z,3.98
2019-04-20T21:40:36.268Z,3.60
2019-04-20T21:43:06.812Z,3.98
2019-04-20T21:45:37.420Z,3.35
2019-04-20T21:48:29.823Z,3.72
2019-04-20T21:50:58.612Z,4.00
2019-04-20T21:53:19.609Z,3.77
2019-04-20T21:55:46.032Z,4.50
2019-04-20T21:58:19.400Z,4.22
2019-04-20T22:01:07.135Z,3.60
2019-04-20T22:03:24.681Z,4.03
2019-04-20T22:06:07.010Z,3.92
2019-04-20T22:08:39.477Z,4.20
2019-04-20T22:11:08.256Z,3.50
2019-04-20T22:13:41.645Z,3.62
2019-04-20T22:16:10.999Z,3.30
2019-04-20T22:18:54.406Z,4.05
2019-04-20T22:21:21.424Z,3.72
2019-04-20T22:24:01.829Z,3.90
2019-04-20T22:26:26.302Z,3.45
2019-04-20T22:28:50.109Z,3.30
2019-04-20T22:31:22.149Z,3.55
2019-04-20T22:33:54.423Z,3.65
2019-04-20T22:36:31.922Z,4.40
2019-04-20T22:39:09.527Z,3.45
2019-04-20T22:41:45.755Z,3.75
2019-04-20T22:44:20.283Z,3.92
2019-04-20T22:46:46.157Z,3.60
2019-04-20T22:49:36.320Z,3.42
2019-04-20T22:51:58.208Z,4.00
2019-04-20T22:54:36.415Z,3.85
2019-04-20T22:57:03.520Z,3.30
2019-04-20T22:59:40.479Z,3.15
2019-04-20T23:02:01.115Z,3.85
2019-04-20T23:04:31.018Z,3.50
2019-04-20T23:07:00.902Z,3.80
2019-04-20T23:09:34.211Z,3.67
2019-04-20T23:12:08.079Z,3.62
2019-04-20T23:14:34.316Z,3.33
2019-04-20T23:17:04.273Z,3.72
2019-04-20T23:19:43.694Z,3.20
2019-04-20T23:22:11.678Z,3.52
2019-04-20T23:24:39.421Z,3.08
2019-04-20T23:27:13.921Z,3.27
2019-04-20T23:29:44.886Z,3.30
2019-04-20T23:32:14.531Z,3.70
2019-04-20T23:34:44.770Z,3.55
2019-04-20T23:37:20.110Z,3.47
2019-04-20T23:39:49.196Z,3.30
2019-04-20T23:42:19.840Z,3.45
2019-04-20T23:45:02.198Z,3.58
2019-04-20T23:47:34.193Z,3.30
2019-04-20T23:50:19.190Z,3.45
2019-04-20T23:52:59.665Z,3.17
2019-04-20T23:55:15.744Z,3.50
2019-04-20T23:57:46.028Z,3.30
